sensor_id;sensor_type;location;lat;lon;timestamp;P1;durP1;ratioP1;P2;durP2;ratioP2
69463;SDS011;56665;41.106;16.688;2023-01-31T00:00:01;13.57;;;7.00;;
69463;SDS011;56665;41.106;16.688;2023-01-31T00:03:09;14.73;;;7.05;;
69463;SDS011;56665;41.106;16.688;2023-01-31T00:06:20;13.30;;;6.57;;
69463;SDS011;56665;41.106;16.688;2023-01-31T00:09:26;11.40;;;5.97;;
69463;SDS011;56665;41.106;16.688;2023-01-31T00:12:29;12.68;;;5.97;;
69463;SDS011;56665;41.106;16.688;2023-01-31T00:15:34;11.83;;;6.10;;
69463;SDS011;56665;41.106;16.688;2023-01-31T00:18:38;12.27;;;6.63;;
69463;SDS011;56665;41.106;16.688;2023-01-31T00:21:42;10.50;;;5.90;;
69463;SDS011;56665;41.106;16.688;2023-01-31T00:24:47;11.88;;;5.93;;
69463;SDS011;56665;41.106;16.688;2023-01-31T00:27:51;10.80;;;5.60;;
69463;SDS011;56665;41.106;16.688;2023-01-31T00:30:57;12.17;;;5.60;;
69463;SDS011;56665;41.106;16.688;2023-01-31T00:34:03;11.45;;;5.72;;
69463;SDS011;56665;41.106;16.688;2023-01-31T00:37:08;13.32;;;6.00;;
69463;SDS011;56665;41.106;16.688;2023-01-31T00:40:11;9.73;;;5.50;;
69463;SDS011;56665;41.106;16.688;2023-01-31T00:43:15;12.40;;;5.47;;
69463;SDS011;56665;41.106;16.688;2023-01-31T00:46:18;11.80;;;5.40;;
69463;SDS011;56665;41.106;16.688;2023-01-31T00:49:23;11.32;;;5.63;;
69463;SDS011;56665;41.106;16.688;2023-01-31T00:52:28;12.77;;;5.80;;
69463;SDS011;56665;41.106;16.688;2023-01-31T00:55:33;12.07;;;5.45;;
69463;SDS011;56665;41.106;16.688;2023-01-31T00:58:39;11.85;;;5.70;;
69463;SDS011;56665;41.106;16.688;2023-01-31T01:01:42;10.80;;;5.77;;
69463;SDS011;56665;41.106;16.688;2023-01-31T01:04:48;13.55;;;6.10;;
69463;SDS011;56665;41.106;16.688;2023-01-31T01:07:53;14.10;;;6.47;;
69463;SDS011;56665;41.106;16.688;2023-01-31T01:11:03;13.93;;;6.25;;
69463;SDS011;56665;41.106;16.688;2023-01-31T01:14:14;14.35;;;6.22;;
69463;SDS011;56665;41.106;16.688;2023-01-31T01:17:18;15.77;;;6.30;;
69463;SDS011;56665;41.106;16.688;2023-01-31T01:20:21;13.23;;;6.55;;
69463;SDS011;56665;41.106;16.688;2023-01-31T01:23:27;12.30;;;6.72;;
69463;SDS011;56665;41.106;16.688;2023-01-31T01:26:32;14.30;;;7.20;;
69463;SDS011;56665;41.106;16.688;2023-01-31T01:29:40;17.48;;;7.35;;
69463;SDS011;56665;41.106;16.688;2023-01-31T01:32:45;15.60;;;7.23;;
69463;SDS011;56665;41.106;16.688;2023-01-31T01:35:51;15.65;;;7.28;;
69463;SDS011;56665;41.106;16.688;2023-01-31T01:38:55;15.48;;;7.82;;
69463;SDS011;56665;41.106;16.688;2023-01-31T01:42:00;15.73;;;8.00;;
69463;SDS011;56665;41.106;16.688;2023-01-31T01:45:08;13.38;;;7.18;;
69463;SDS011;56665;41.106;16.688;2023-01-31T01:48:18;15.73;;;7.87;;
69463;SDS011;56665;41.106;16.688;2023-01-31T01:51:22;14.32;;;8.05;;
69463;SDS011;56665;41.106;16.688;2023-01-31T01:54:30;15.07;;;7.97;;
69463;SDS011;56665;41.106;16.688;2023-01-31T01:57:39;15.82;;;8.10;;
69463;SDS011;56665;41.106;16.688;2023-01-31T02:00:46;15.52;;;8.23;;
69463;SDS011;56665;41.106;16.688;2023-01-31T02:03:54;15.43;;;7.47;;
69463;SDS011;56665;41.106;16.688;2023-01-31T02:06:58;15.13;;;8.13;;
69463;SDS011;56665;41.106;16.688;2023-01-31T02:10:08;17.40;;;7.70;;
69463;SDS011;56665;41.106;16.688;2023-01-31T02:13:18;16.17;;;7.50;;
69463;SDS011;56665;41.106;16.688;2023-01-31T02:16:23;16.17;;;8.60;;
69463;SDS011;56665;41.106;16.688;2023-01-31T02:19:45;15.93;;;7.73;;
69463;SDS011;56665;41.106;16.688;2023-01-31T02:23:42;17.33;;;8.32;;
69463;SDS011;56665;41.106;16.688;2023-01-31T02:33:53;14.95;;;7.55;;
69463;SDS011;56665;41.106;16.688;2023-01-31T02:37:21;15.03;;;7.43;;
69463;SDS011;56665;41.106;16.688;2023-01-31T02:40:47;14.68;;;7.95;;
69463;SDS011;56665;41.106;16.688;2023-01-31T02:51:14;16.33;;;9.10;;
69463;SDS011;56665;41.106;16.688;2023-01-31T02:54:26;16.27;;;8.33;;
69463;SDS011;56665;41.106;16.688;2023-01-31T02:57:52;16.80;;;8.23;;
69463;SDS011;56665;41.106;16.688;2023-01-31T03:01:00;14.32;;;7.43;;
69463;SDS011;56665;41.106;16.688;2023-01-31T03:04:07;14.98;;;7.68;;
69463;SDS011;56665;41.106;16.688;2023-01-31T03:07:14;14.65;;;7.80;;
69463;SDS011;56665;41.106;16.688;2023-01-31T03:13:46;13.75;;;7.43;;
69463;SDS011;56665;41.106;16.688;2023-01-31T03:23:47;15.77;;;7.75;;
69463;SDS011;56665;41.106;16.688;2023-01-31T03:26:57;18.53;;;8.40;;
69463;SDS011;56665;41.106;16.688;2023-01-31T03:30:12;16.05;;;7.20;;
69463;SDS011;56665;41.106;16.688;2023-01-31T03:33:20;18.05;;;8.25;;
69463;SDS011;56665;41.106;16.688;2023-01-31T03:36:40;17.02;;;8.50;;
69463;SDS011;56665;41.106;16.688;2023-01-31T03:41:24;18.17;;;8.00;;
69463;SDS011;56665;41.106;16.688;2023-01-31T03:44:04;13.63;;;7.03;;
69463;SDS011;56665;41.106;16.688;2023-01-31T03:47:14;16.00;;;8.02;;
69463;SDS011;56665;41.106;16.688;2023-01-31T03:50:29;17.15;;;7.72;;
69463;SDS011;56665;41.106;16.688;2023-01-31T03:53:39;16.85;;;7.88;;
69463;SDS011;56665;41.106;16.688;2023-01-31T03:57:28;14.93;;;7.88;;
69463;SDS011;56665;41.106;16.688;2023-01-31T04:00:42;17.23;;;8.30;;
69463;SDS011;56665;41.106;16.688;2023-01-31T04:03:59;17.25;;;8.23;;
69463;SDS011;56665;41.106;16.688;2023-01-31T04:07:10;17.27;;;7.95;;
69463;SDS011;56665;41.106;16.688;2023-01-31T04:10:15;14.15;;;7.50;;
69463;SDS011;56665;41.106;16.688;2023-01-31T04:13:20;14.57;;;7.38;;
69463;SDS011;56665;41.106;16.688;2023-01-31T04:16:27;16.87;;;8.10;;
69463;SDS011;56665;41.106;16.688;2023-01-31T04:19:32;14.15;;;7.35;;
69463;SDS011;56665;41.106;16.688;2023-01-31T04:22:35;15.65;;;7.82;;
69463;SDS011;56665;41.106;16.688;2023-01-31T04:25:40;15.55;;;7.80;;
69463;SDS011;56665;41.106;16.688;2023-01-31T04:28:44;13.43;;;7.47;;
69463;SDS011;56665;41.106;16.688;2023-01-31T04:31:47;16.40;;;8.20;;
69463;SDS011;56665;41.106;16.688;2023-01-31T04:34:53;16.63;;;7.82;;
69463;SDS011;56665;41.106;16.688;2023-01-31T04:37:57;15.65;;;7.38;;
69463;SDS011;56665;41.106;16.688;2023-01-31T04:41:00;13.68;;;7.72;;
69463;SDS011;56665;41.106;16.688;2023-01-31T04:44:04;15.77;;;7.60;;
69463;SDS011;56665;41.106;16.688;2023-01-31T04:47:08;16.03;;;7.67;;
69463;SDS011;56665;41.106;16.688;2023-01-31T04:50:11;13.82;;;7.05;;
69463;SDS011;56665;41.106;16.688;2023-01-31T04:53:15;13.90;;;6.97;;
69463;SDS011;56665;41.106;16.688;2023-01-31T04:56:18;15.38;;;7.35;;
69463;SDS011;56665;41.106;16.688;2023-01-31T04:59:25;14.10;;;7.18;;
69463;SDS011;56665;41.106;16.688;2023-01-31T05:02:31;17.17;;;7.97;;
69463;SDS011;56665;41.106;16.688;2023-01-31T05:05:35;14.68;;;6.85;;
69463;SDS011;56665;41.106;16.688;2023-01-31T05:08:40;15.50;;;7.47;;
69463;SDS011;56665;41.106;16.688;2023-01-31T05:11:44;17.05;;;8.13;;
69463;SDS011;56665;41.106;16.688;2023-01-31T05:14:48;17.38;;;7.50;;
69463;SDS011;56665;41.106;16.688;2023-01-31T05:17:54;20.10;;;7.93;;
69463;SDS011;56665;41.106;16.688;2023-01-31T05:21:05;14.13;;;7.80;;
69463;SDS011;56665;41.106;16.688;2023-01-31T05:24:09;15.05;;;7.82;;
69463;SDS011;56665;41.106;16.688;2023-01-31T05:27:13;14.23;;;7.57;;
69463;SDS011;56665;41.106;16.688;2023-01-31T05:30:18;15.27;;;7.63;;
69463;SDS011;56665;41.106;16.688;2023-01-31T05:33:23;15.87;;;7.23;;
69463;SDS011;56665;41.106;16.688;2023-01-31T05:36:31;14.45;;;7.47;;
69463;SDS011;56665;41.106;16.688;2023-01-31T05:39:34;14.02;;;6.80;;
69463;SDS011;56665;41.106;16.688;2023-01-31T05:42:40;15.07;;;7.05;;
69463;SDS011;56665;41.106;16.688;2023-01-31T05:45:44;13.82;;;6.65;;
69463;SDS011;56665;41.106;16.688;2023-01-31T05:48:48;13.83;;;7.63;;
69463;SDS011;56665;41.106;16.688;2023-01-31T05:51:52;16.25;;;8.23;;
69463;SDS011;56665;41.106;16.688;2023-01-31T05:54:56;15.43;;;8.07;;
69463;SDS011;56665;41.106;16.688;2023-01-31T05:58:00;19.92;;;8.65;;
69463;SDS011;56665;41.106;16.688;2023-01-31T06:01:04;14.35;;;7.10;;
69463;SDS011;56665;41.106;16.688;2023-01-31T06:04:11;16.07;;;7.70;;
69463;SDS011;56665;41.106;16.688;2023-01-31T06:07:17;17.45;;;8.63;;
69463;SDS011;56665;41.106;16.688;2023-01-31T06:10:22;18.65;;;9.32;;
69463;SDS011;56665;41.106;16.688;2023-01-31T06:13:25;19.17;;;8.48;;
69463;SDS011;56665;41.106;16.688;2023-01-31T06:16:29;20.00;;;9.40;;
69463;SDS011;56665;41.106;16.688;2023-01-31T06:19:33;19.87;;;9.70;;
69463;SDS011;56665;41.106;16.688;2023-01-31T06:22:38;23.90;;;11.15;;
69463;SDS011;56665;41.106;16.688;2023-01-31T06:25:47;27.48;;;12.75;;
69463;SDS011;56665;41.106;16.688;2023-01-31T06:28:52;24.75;;;12.52;;
69463;SDS011;56665;41.106;16.688;2023-01-31T06:31:55;24.63;;;10.93;;
69463;SDS011;56665;41.106;16.688;2023-01-31T06:35:01;20.83;;;10.67;;
69463;SDS011;56665;41.106;16.688;2023-01-31T06:38:06;22.38;;;11.30;;
69463;SDS011;56665;41.106;16.688;2023-01-31T06:41:10;22.30;;;10.60;;
69463;SDS011;56665;41.106;16.688;2023-01-31T06:44:15;19.75;;;10.13;;
69463;SDS011;56665;41.106;16.688;2023-01-31T06:47:20;21.77;;;11.48;;
69463;SDS011;56665;41.106;16.688;2023-01-31T06:50:24;23.80;;;11.57;;
69463;SDS011;56665;41.106;16.688;2023-01-31T06:53:27;26.35;;;13.45;;
69463;SDS011;56665;41.106;16.688;2023-01-31T06:56:31;27.55;;;13.85;;
69463;SDS011;56665;41.106;16.688;2023-01-31T06:59:36;31.77;;;15.15;;
69463;SDS011;56665;41.106;16.688;2023-01-31T07:02:39;31.70;;;14.63;;
69463;SDS011;56665;41.106;16.688;2023-01-31T07:05:43;27.50;;;13.07;;
69463;SDS011;56665;41.106;16.688;2023-01-31T07:08:48;29.02;;;12.85;;
69463;SDS011;56665;41.106;16.688;2023-01-31T07:11:51;25.08;;;12.10;;
69463;SDS011;56665;41.106;16.688;2023-01-31T07:14:55;26.60;;;12.40;;
69463;SDS011;56665;41.106;16.688;2023-01-31T07:17:59;21.70;;;11.70;;
69463;SDS011;56665;41.106;16.688;2023-01-31T07:21:03;23.93;;;11.80;;
69463;SDS011;56665;41.106;16.688;2023-01-31T07:24:07;25.70;;;12.07;;
69463;SDS011;56665;41.106;16.688;2023-01-31T07:27:11;23.67;;;12.13;;
69463;SDS011;56665;41.106;16.688;2023-01-31T07:30:15;25.13;;;12.05;;
69463;SDS011;56665;41.106;16.688;2023-01-31T07:33:19;22.73;;;11.63;;
69463;SDS011;56665;41.106;16.688;2023-01-31T07:36:23;20.63;;;10.70;;
69463;SDS011;56665;41.106;16.688;2023-01-31T07:39:28;24.45;;;11.63;;
69463;SDS011;56665;41.106;16.688;2023-01-31T07:42:33;29.58;;;11.43;;
69463;SDS011;56665;41.106;16.688;2023-01-31T07:45:37;29.38;;;10.65;;
69463;SDS011;56665;41.106;16.688;2023-01-31T07:48:41;21.35;;;11.07;;
69463;SDS011;56665;41.106;16.688;2023-01-31T07:51:45;21.00;;;11.23;;
69463;SDS011;56665;41.106;16.688;2023-01-31T07:54:49;21.27;;;11.27;;
69463;SDS011;56665;41.106;16.688;2023-01-31T07:57:52;21.13;;;12.18;;
69463;SDS011;56665;41.106;16.688;2023-01-31T08:00:56;32.50;;;13.70;;
69463;SDS011;56665;41.106;16.688;2023-01-31T08:04:18;138.90;;;20.00;;
69463;SDS011;56665;41.106;16.688;2023-01-31T08:07:22;56.03;;;11.77;;
69463;SDS011;56665;41.106;16.688;2023-01-31T08:10:26;34.37;;;10.03;;
69463;SDS011;56665;41.106;16.688;2023-01-31T08:13:33;23.92;;;8.70;;
69463;SDS011;56665;41.106;16.688;2023-01-31T08:16:40;20.15;;;8.40;;
69463;SDS011;56665;41.106;16.688;2023-01-31T08:19:44;16.40;;;7.65;;
69463;SDS011;56665;41.106;16.688;2023-01-31T08:22:47;11.97;;;4.90;;
69463;SDS011;56665;41.106;16.688;2023-01-31T08:25:51;11.07;;;6.63;;
69463;SDS011;56665;41.106;16.688;2023-01-31T08:28:55;8.95;;;5.40;;
69463;SDS011;56665;41.106;16.688;2023-01-31T08:31:58;8.15;;;4.35;;
69463;SDS011;56665;41.106;16.688;2023-01-31T08:35:02;12.95;;;4.80;;
69463;SDS011;56665;41.106;16.688;2023-01-31T08:38:06;6.27;;;2.97;;
69463;SDS011;56665;41.106;16.688;2023-01-31T08:41:10;5.80;;;2.28;;
69463;SDS011;56665;41.106;16.688;2023-01-31T08:44:14;9.85;;;2.75;;
69463;SDS011;56665;41.106;16.688;2023-01-31T08:47:18;7.40;;;2.85;;
69463;SDS011;56665;41.106;16.688;2023-01-31T08:50:22;5.55;;;1.85;;
69463;SDS011;56665;41.106;16.688;2023-01-31T08:53:27;8.60;;;2.40;;
69463;SDS011;56665;41.106;16.688;2023-01-31T08:56:31;7.47;;;2.80;;
69463;SDS011;56665;41.106;16.688;2023-01-31T08:59:35;10.30;;;3.10;;
69463;SDS011;56665;41.106;16.688;2023-01-31T09:02:38;8.70;;;2.40;;
69463;SDS011;56665;41.106;16.688;2023-01-31T09:05:42;8.93;;;2.72;;
69463;SDS011;56665;41.106;16.688;2023-01-31T09:08:46;5.43;;;2.57;;
69463;SDS011;56665;41.106;16.688;2023-01-31T09:11:51;12.38;;;4.90;;
69463;SDS011;56665;41.106;16.688;2023-01-31T09:14:54;11.35;;;4.80;;
69463;SDS011;56665;41.106;16.688;2023-01-31T09:17:58;8.32;;;3.03;;
69463;SDS011;56665;41.106;16.688;2023-01-31T09:21:03;6.78;;;2.63;;
69463;SDS011;56665;41.106;16.688;2023-01-31T09:24:10;4.57;;;1.63;;
69463;SDS011;56665;41.106;16.688;2023-01-31T09:27:14;5.57;;;2.50;;
69463;SDS011;56665;41.106;16.688;2023-01-31T09:30:18;8.20;;;3.05;;
69463;SDS011;56665;41.106;16.688;2023-01-31T09:33:22;6.32;;;2.65;;
69463;SDS011;56665;41.106;16.688;2023-01-31T09:36:25;5.25;;;2.47;;
69463;SDS011;56665;41.106;16.688;2023-01-31T09:39:30;5.40;;;2.30;;
69463;SDS011;56665;41.106;16.688;2023-01-31T09:42:36;5.82;;;2.00;;
69463;SDS011;56665;41.106;16.688;2023-01-31T09:45:45;7.78;;;2.42;;
69463;SDS011;56665;41.106;16.688;2023-01-31T09:48:50;5.55;;;1.67;;
69463;SDS011;56665;41.106;16.688;2023-01-31T09:52:00;5.32;;;2.42;;
69463;SDS011;56665;41.106;16.688;2023-01-31T09:55:13;10.93;;;4.40;;
69463;SDS011;56665;41.106;16.688;2023-01-31T10:02:15;5.40;;;2.03;;
69463;SDS011;56665;41.106;16.688;2023-01-31T10:05:38;5.20;;;1.52;;
69463;SDS011;56665;41.106;16.688;2023-01-31T10:12:39;7.67;;;2.83;;
69463;SDS011;56665;41.106;16.688;2023-01-31T10:15:52;21.13;;;3.13;;
69463;SDS011;56665;41.106;16.688;2023-01-31T10:19:19;6.57;;;2.38;;
69463;SDS011;56665;41.106;16.688;2023-01-31T10:22:40;11.27;;;3.55;;
69463;SDS011;56665;41.106;16.688;2023-01-31T10:25:51;5.97;;;1.70;;
69463;SDS011;56665;41.106;16.688;2023-01-31T10:29:02;3.83;;;1.47;;
69463;SDS011;56665;41.106;16.688;2023-01-31T10:32:26;8.05;;;2.70;;
69463;SDS011;56665;41.106;16.688;2023-01-31T10:35:34;5.72;;;2.40;;
69463;SDS011;56665;41.106;16.688;2023-01-31T10:42:36;7.40;;;2.88;;
69463;SDS011;56665;41.106;16.688;2023-01-31T10:45:41;6.80;;;2.60;;
69463;SDS011;56665;41.106;16.688;2023-01-31T10:48:46;5.72;;;3.08;;
69463;SDS011;56665;41.106;16.688;2023-01-31T10:58:40;7.28;;;2.05;;
69463;SDS011;56665;41.106;16.688;2023-01-31T11:01:44;6.70;;;2.57;;
69463;SDS011;56665;41.106;16.688;2023-01-31T11:04:48;7.65;;;2.80;;
69463;SDS011;56665;41.106;16.688;2023-01-31T11:07:57;5.60;;;2.38;;
69463;SDS011;56665;41.106;16.688;2023-01-31T11:11:12;5.78;;;2.15;;
69463;SDS011;56665;41.106;16.688;2023-01-31T11:14:20;8.15;;;3.35;;
69463;SDS011;56665;41.106;16.688;2023-01-31T11:17:24;9.97;;;4.67;;
69463;SDS011;56665;41.106;16.688;2023-01-31T11:20:29;6.35;;;3.20;;
69463;SDS011;56665;41.106;16.688;2023-01-31T11:23:36;11.75;;;6.10;;
69463;SDS011;56665;41.106;16.688;2023-01-31T11:26:40;7.88;;;3.35;;
69463;SDS011;56665;41.106;16.688;2023-01-31T11:29:54;5.18;;;2.30;;
69463;SDS011;56665;41.106;16.688;2023-01-31T11:33:01;7.87;;;3.90;;
69463;SDS011;56665;41.106;16.688;2023-01-31T11:36:09;13.77;;;7.28;;
69463;SDS011;56665;41.106;16.688;2023-01-31T11:39:22;7.65;;;4.65;;
69463;SDS011;56665;41.106;16.688;2023-01-31T11:42:33;9.82;;;4.20;;
69463;SDS011;56665;41.106;16.688;2023-01-31T11:45:37;6.60;;;3.78;;
69463;SDS011;56665;41.106;16.688;2023-01-31T11:48:46;5.90;;;2.50;;
69463;SDS011;56665;41.106;16.688;2023-01-31T11:51:50;6.03;;;2.33;;
69463;SDS011;56665;41.106;16.688;2023-01-31T11:54:57;8.10;;;2.83;;
69463;SDS011;56665;41.106;16.688;2023-01-31T11:58:18;9.85;;;3.65;;
69463;SDS011;56665;41.106;16.688;2023-01-31T12:01:23;5.65;;;2.90;;
69463;SDS011;56665;41.106;16.688;2023-01-31T12:04:33;7.20;;;2.70;;
69463;SDS011;56665;41.106;16.688;2023-01-31T12:07:45;5.20;;;1.65;;
69463;SDS011;56665;41.106;16.688;2023-01-31T12:10:55;3.78;;;1.10;;
69463;SDS011;56665;41.106;16.688;2023-01-31T12:14:11;3.65;;;1.40;;
69463;SDS011;56665;41.106;16.688;2023-01-31T12:17:17;5.43;;;1.85;;
69463;SDS011;56665;41.106;16.688;2023-01-31T12:31:00;4.60;;;1.70;;
69463;SDS011;56665;41.106;16.688;2023-01-31T12:35:03;7.35;;;1.98;;
69463;SDS011;56665;41.106;16.688;2023-01-31T12:50:59;6.60;;;2.17;;
69463;SDS011;56665;41.106;16.688;2023-01-31T12:57:31;4.88;;;1.90;;
69463;SDS011;56665;41.106;16.688;2023-01-31T13:00:46;5.35;;;1.90;;
69463;SDS011;56665;41.106;16.688;2023-01-31T13:07:46;5.68;;;1.92;;
69463;SDS011;56665;41.106;16.688;2023-01-31T13:11:00;6.80;;;3.10;;
69463;SDS011;56665;41.106;16.688;2023-01-31T13:14:15;5.00;;;1.88;;
69463;SDS011;56665;41.106;16.688;2023-01-31T13:17:23;4.97;;;2.90;;
69463;SDS011;56665;41.106;16.688;2023-01-31T13:21:16;9.13;;;3.50;;
69463;SDS011;56665;41.106;16.688;2023-01-31T13:24:05;7.72;;;1.98;;
69463;SDS011;56665;41.106;16.688;2023-01-31T13:27:18;5.20;;;1.20;;
69463;SDS011;56665;41.106;16.688;2023-01-31T13:30:33;4.93;;;1.63;;
69463;SDS011;56665;41.106;16.688;2023-01-31T13:33:56;3.85;;;1.70;;
69463;SDS011;56665;41.106;16.688;2023-01-31T13:37:04;5.05;;;2.08;;
69463;SDS011;56665;41.106;16.688;2023-01-31T13:40:20;6.57;;;1.95;;
69463;SDS011;56665;41.106;16.688;2023-01-31T13:43:27;7.03;;;2.40;;
69463;SDS011;56665;41.106;16.688;2023-01-31T13:50:01;3.80;;;1.42;;
69463;SDS011;56665;41.106;16.688;2023-01-31T13:53:20;4.97;;;1.42;;
69463;SDS011;56665;41.106;16.688;2023-01-31T13:56:32;7.72;;;4.20;;
69463;SDS011;56665;41.106;16.688;2023-01-31T13:59:38;11.07;;;6.40;;
69463;SDS011;56665;41.106;16.688;2023-01-31T14:02:58;7.22;;;3.20;;
69463;SDS011;56665;41.106;16.688;2023-01-31T14:06:06;8.57;;;2.80;;
69463;SDS011;56665;41.106;16.688;2023-01-31T14:09:27;6.05;;;2.67;;
69463;SDS011;56665;41.106;16.688;2023-01-31T14:12:33;5.82;;;2.17;;
69463;SDS011;56665;41.106;16.688;2023-01-31T14:15:45;5.97;;;2.87;;
69463;SDS011;56665;41.106;16.688;2023-01-31T14:18:52;4.15;;;2.20;;
69463;SDS011;56665;41.106;16.688;2023-01-31T14:22:02;5.93;;;2.72;;
69463;SDS011;56665;41.106;16.688;2023-01-31T14:25:20;5.20;;;2.28;;
69463;SDS011;56665;41.106;16.688;2023-01-31T14:28:43;14.57;;;6.22;;
69463;SDS011;56665;41.106;16.688;2023-01-31T14:31:48;13.40;;;5.37;;
69463;SDS011;56665;41.106;16.688;2023-01-31T14:34:54;11.13;;;3.55;;
69463;SDS011;56665;41.106;16.688;2023-01-31T14:44:54;6.40;;;2.75;;
69463;SDS011;56665;41.106;16.688;2023-01-31T14:58:06;7.65;;;3.10;;
69463;SDS011;56665;41.106;16.688;2023-01-31T15:01:18;7.13;;;3.13;;
69463;SDS011;56665;41.106;16.688;2023-01-31T15:04:24;7.60;;;2.60;;
69463;SDS011;56665;41.106;16.688;2023-01-31T15:07:30;7.55;;;2.70;;
69463;SDS011;56665;41.106;16.688;2023-01-31T15:17:45;4.18;;;1.60;;
69463;SDS011;56665;41.106;16.688;2023-01-31T15:20:57;5.70;;;1.57;;
69463;SDS011;56665;41.106;16.688;2023-01-31T15:24:03;5.80;;;2.53;;
69463;SDS011;56665;41.106;16.688;2023-01-31T15:27:14;6.53;;;2.17;;
69463;SDS011;56665;41.106;16.688;2023-01-31T15:30:20;4.65;;;2.10;;
69463;SDS011;56665;41.106;16.688;2023-01-31T15:33:27;4.18;;;1.58;;
69463;SDS011;56665;41.106;16.688;2023-01-31T15:36:41;3.33;;;1.23;;
69463;SDS011;56665;41.106;16.688;2023-01-31T15:40:18;2.72;;;1.40;;
69463;SDS011;56665;41.106;16.688;2023-01-31T15:43:24;3.47;;;1.88;;
69463;SDS011;56665;41.106;16.688;2023-01-31T15:46:29;4.10;;;1.80;;
69463;SDS011;56665;41.106;16.688;2023-01-31T15:49:40;7.18;;;3.53;;
69463;SDS011;56665;41.106;16.688;2023-01-31T15:52:47;8.63;;;4.10;;
69463;SDS011;56665;41.106;16.688;2023-01-31T15:55:52;8.02;;;3.58;;
69463;SDS011;56665;41.106;16.688;2023-01-31T15:59:09;5.93;;;3.10;;
69463;SDS011;56665;41.106;16.688;2023-01-31T16:02:18;6.30;;;2.78;;
69463;SDS011;56665;41.106;16.688;2023-01-31T16:05:32;11.27;;;4.30;;
69463;SDS011;56665;41.106;16.688;2023-01-31T16:08:41;11.40;;;5.03;;
69463;SDS011;56665;41.106;16.688;2023-01-31T16:11:45;10.70;;;5.30;;
69463;SDS011;56665;41.106;16.688;2023-01-31T16:14:49;14.50;;;5.30;;
69463;SDS011;56665;41.106;16.688;2023-01-31T16:17:59;9.40;;;3.90;;
69463;SDS011;56665;41.106;16.688;2023-01-31T16:21:49;8.73;;;3.95;;
69463;SDS011;56665;41.106;16.688;2023-01-31T16:24:52;8.23;;;3.53;;
69463;SDS011;56665;41.106;16.688;2023-01-31T16:28:04;8.32;;;3.03;;
69463;SDS011;56665;41.106;16.688;2023-01-31T16:31:13;6.53;;;3.10;;
69463;SDS011;56665;41.106;16.688;2023-01-31T16:34:40;6.53;;;2.97;;
69463;SDS011;56665;41.106;16.688;2023-01-31T16:37:44;5.90;;;2.72;;
69463;SDS011;56665;41.106;16.688;2023-01-31T16:40:51;8.47;;;3.30;;
69463;SDS011;56665;41.106;16.688;2023-01-31T16:43:58;10.18;;;4.05;;
69463;SDS011;56665;41.106;16.688;2023-01-31T16:47:03;13.20;;;7.05;;
69463;SDS011;56665;41.106;16.688;2023-01-31T16:53:30;14.63;;;6.60;;
69463;SDS011;56665;41.106;16.688;2023-01-31T16:56:35;8.63;;;3.80;;
69463;SDS011;56665;41.106;16.688;2023-01-31T16:59:40;6.50;;;3.25;;
69463;SDS011;56665;41.106;16.688;2023-01-31T17:02:50;5.93;;;2.70;;
69463;SDS011;56665;41.106;16.688;2023-01-31T17:05:55;7.68;;;4.00;;
69463;SDS011;56665;41.106;16.688;2023-01-31T17:09:00;10.02;;;4.35;;
69463;SDS011;56665;41.106;16.688;2023-01-31T17:12:05;7.57;;;4.00;;
69463;SDS011;56665;41.106;16.688;2023-01-31T17:15:14;8.48;;;4.38;;
69463;SDS011;56665;41.106;16.688;2023-01-31T17:18:19;9.15;;;4.63;;
69463;SDS011;56665;41.106;16.688;2023-01-31T17:21:26;11.38;;;5.55;;
69463;SDS011;56665;41.106;16.688;2023-01-31T17:24:32;13.70;;;5.93;;
69463;SDS011;56665;41.106;16.688;2023-01-31T17:27:36;14.03;;;5.00;;
69463;SDS011;56665;41.106;16.688;2023-01-31T17:30:40;13.38;;;4.95;;
69463;SDS011;56665;41.106;16.688;2023-01-31T17:33:48;13.50;;;6.05;;
69463;SDS011;56665;41.106;16.688;2023-01-31T17:36:52;10.90;;;5.53;;
69463;SDS011;56665;41.106;16.688;2023-01-31T17:39:57;16.63;;;6.00;;
69463;SDS011;56665;41.106;16.688;2023-01-31T17:43:01;13.13;;;6.00;;
69463;SDS011;56665;41.106;16.688;2023-01-31T17:46:06;12.60;;;7.32;;
69463;SDS011;56665;41.106;16.688;2023-01-31T17:49:13;19.10;;;8.45;;
69463;SDS011;56665;41.106;16.688;2023-01-31T17:52:20;24.00;;;10.05;;
69463;SDS011;56665;41.106;16.688;2023-01-31T17:55:25;32.10;;;14.90;;
69463;SDS011;56665;41.106;16.688;2023-01-31T17:58:29;34.20;;;14.73;;
69463;SDS011;56665;41.106;16.688;2023-01-31T18:01:33;37.47;;;15.70;;
69463;SDS011;56665;41.106;16.688;2023-01-31T18:04:37;48.00;;;18.98;;
69463;SDS011;56665;41.106;16.688;2023-01-31T18:07:41;43.22;;;20.40;;
69463;SDS011;56665;41.106;16.688;2023-01-31T18:10:45;45.95;;;20.02;;
69463;SDS011;56665;41.106;16.688;2023-01-31T18:13:51;45.77;;;20.83;;
69463;SDS011;56665;41.106;16.688;2023-01-31T18:16:55;48.45;;;22.15;;
69463;SDS011;56665;41.106;16.688;2023-01-31T18:19:59;34.60;;;18.77;;
69463;SDS011;56665;41.106;16.688;2023-01-31T18:23:06;27.02;;;15.07;;
69463;SDS011;56665;41.106;16.688;2023-01-31T18:26:10;28.60;;;14.95;;
69463;SDS011;56665;41.106;16.688;2023-01-31T18:29:15;28.37;;;13.47;;
69463;SDS011;56665;41.106;16.688;2023-01-31T18:32:23;27.83;;;15.98;;
69463;SDS011;56665;41.106;16.688;2023-01-31T18:35:30;40.95;;;17.25;;
69463;SDS011;56665;41.106;16.688;2023-01-31T18:38:34;32.88;;;15.30;;
69463;SDS011;56665;41.106;16.688;2023-01-31T18:41:39;31.80;;;14.80;;
69463;SDS011;56665;41.106;16.688;2023-01-31T18:44:43;24.98;;;12.25;;
69463;SDS011;56665;41.106;16.688;2023-01-31T18:47:47;21.98;;;12.35;;
69463;SDS011;56665;41.106;16.688;2023-01-31T18:50:53;17.10;;;10.23;;
69463;SDS011;56665;41.106;16.688;2023-01-31T18:53:58;15.68;;;9.18;;
69463;SDS011;56665;41.106;16.688;2023-01-31T18:57:03;16.50;;;8.88;;
69463;SDS011;56665;41.106;16.688;2023-01-31T19:00:08;17.30;;;10.30;;
69463;SDS011;56665;41.106;16.688;2023-01-31T19:03:12;17.02;;;10.05;;
69463;SDS011;56665;41.106;16.688;2023-01-31T19:06:18;13.32;;;7.72;;
69463;SDS011;56665;41.106;16.688;2023-01-31T19:09:24;18.92;;;9.90;;
69463;SDS011;56665;41.106;16.688;2023-01-31T19:12:28;16.13;;;9.15;;
69463;SDS011;56665;41.106;16.688;2023-01-31T19:15:31;15.60;;;8.23;;
69463;SDS011;56665;41.106;16.688;2023-01-31T19:18:39;13.70;;;7.38;;
69463;SDS011;56665;41.106;16.688;2023-01-31T19:21:44;15.98;;;7.80;;
69463;SDS011;56665;41.106;16.688;2023-01-31T19:24:48;15.40;;;7.65;;
69463;SDS011;56665;41.106;16.688;2023-01-31T19:27:52;12.32;;;6.70;;
69463;SDS011;56665;41.106;16.688;2023-01-31T19:30:56;12.30;;;5.60;;
69463;SDS011;56665;41.106;16.688;2023-01-31T19:34:06;15.02;;;7.18;;
69463;SDS011;56665;41.106;16.688;2023-01-31T19:37:12;9.13;;;5.40;;
69463;SDS011;56665;41.106;16.688;2023-01-31T19:40:16;14.68;;;6.07;;
69463;SDS011;56665;41.106;16.688;2023-01-31T19:43:20;12.65;;;6.13;;
69463;SDS011;56665;41.106;16.688;2023-01-31T19:46:25;12.03;;;4.73;;
69463;SDS011;56665;41.106;16.688;2023-01-31T19:49:30;8.77;;;4.03;;
69463;SDS011;56665;41.106;16.688;2023-01-31T19:52:35;8.52;;;4.20;;
69463;SDS011;56665;41.106;16.688;2023-01-31T19:55:39;6.95;;;3.40;;
69463;SDS011;56665;41.106;16.688;2023-01-31T19:58:44;7.38;;;3.30;;
69463;SDS011;56665;41.106;16.688;2023-01-31T20:01:47;6.60;;;2.80;;
69463;SDS011;56665;41.106;16.688;2023-01-31T20:04:51;6.50;;;2.75;;